KMOT

Minot International Airport

Minot, North Dakota, USA
METAR KMOT 180154Z 15007KT 10SM FU CLR 26/14 A2999 RMK AO2 SLP152 T02610139
Observed Flight Rules
Aug-18 @ 01:54 UTC (36 minutes ago) Visual Flight Rules
Wind Visibility Clouds Conditions
150° at 7 knots 10 miles
  • Clear skies
  • Smoke
Temperatures Readings
Current 26°C / 79°F
Dewpoint 14°C / 57°F
Humidity 48%
Altimeter 29.99" Hg
Pressure 1015.2 hPa
Elevation 519
METAR KMOT 180154Z 15007KT 10SM FU CLR 26/14 A2999 RMK AO2 SLP152 T02610139
Observed Flight Rules
Aug-18 @ 01:54 UTC
(36 minutes ago)
VFR
Wind Visibility
150° at 7 knots 10 miles
Clouds
  • Clear skies
Conditions
  • Smoke
Temperature Dewpoint
26°C / 79°F 14°C / 57°F
Humidity Altimeter Pressure
48% 29.99" Hg 1015.2 hPa